AirNav   Free SoundLink Mini II speaker
 
 346 users online  

49KY Morning Star Heliport
Lexington, Kentucky, USA

GOING TO LEXINGTON?


FAA INFORMATION EFFECTIVE 26 MARCH 2020

Location

FAA Identifier: 49KY
Lat/Long: 37-57-50.4300N 084-22-18.6500W
37-57.840500N 084-22.310833W
37.9640083,-84.3718472
(estimated)
Elevation: 916 ft. / 279 m (estimated)
Variation: 03W (1985)
From city: 4 miles SE of LEXINGTON, KY
Time zone: UTC -4 (UTC -5 during Standard Time)
Zip code: 40509

Heliport Operations

Heliport use: Private use. Permission required prior to landing
Activation date: 03/1991
Control tower: no
ARTCC: INDIANAPOLIS CENTER
FSS: LOUISVILLE FLIGHT SERVICE STATION
Attendance: MON-FRI 0730-1630
Wind indicator: yes
Segmented circle: no

Heliport Communications

WX ASOS at LEX (12 nm W): PHONE 859-281-5700
WX AWOS-3 at 27K (16 nm N): 119.975 (502-867-1564)
WX AWOS-3 at IOB (19 nm E): 120.675 (859-498-7001)

Nearby radio navigation aids

VOR radial/distance  VOR name  Freq  Var
HYKr092/4.8LEXINGTON VOR/DME112.6000E
FFTr120/(28.5)FRANKFORT VOR109.4003W

 
NDB name  Hdg/Dist  Freq  Var  ID
BRIDL150/11.634004WGN --. -.
BLAYD100/13.724204WLE .-.. .
MOUNT STERLING259/19.321006WIOB .. --- -...
SECO310/20.439303WXYC -..- -.-- -.-.
GOODALL042/29.831103WDVK -.. ...- -.-

Heliport Services

Runway Information

Helipad H1

Dimensions: 20 x 20 ft. / 6 x 6 m
Surface: asphalt
Latitude: 37-57.840500N
Longitude: 084-22.310833W
Elevation: 916.0 ft.
Traffic pattern: leftleft

Heliport Ownership and Management from official FAA records

Ownership: Privately-owned
Owner: MORNING STAR AVIATION SVC INC
451 BLUE SKY PKWY
LEXINGTON, KY 40509
Phone (859) 321-8204
Manager: KEVIN J. MIMS
451 BLUE SKY PKWY
LEXINGTON, KY 40509
Phone (859) 321-8204

Additional Remarks

FOR CD CTC LEXINGTON APCH AT 859-514-7890.

Instrument Procedures

There are no published instrument procedures at 49KY.

Some nearby airports with instrument procedures:

KLEX - Blue Grass Airport (12 nm W)
27K - Georgetown-Scott County Regional Airport (16 nm N)
KIOB - Mount Sterling-Montgomery County Airport (19 nm E)
KRGA - Central Kentucky Regional Airport (20 nm S)
0I8 - Cynthiana-Harrison County Airport (24 nm N)
 
Loc | Ops | Rwys | IFR | FBO | Links
Com | Nav | Svcs | Stats | Notes
Area around 49KY (Morning Star Heliport)
 
Road maps at: MapQuest Bing Google
 
Aerial photo
No photo
 
Sectional chart

 
Airport distance calculator
Flying to Morning Star Heliport? Find the distance to fly.

From to 49KY

Sunrise and sunset
Times for 10-Apr-2020
 Local
(UTC-4)
 Zulu
(UTC)
Morning civil twilight06:4210:42
Sunrise07:0911:09
Sunset20:0800:08
Evening civil twilight20:3500:35

Current date and time
Zulu (UTC)  10-Apr-2020 06:52:41
Local (UTC-4)  10-Apr-2020 02:52:41
 
METAR
KLEX 
12nm W 
100554Z 30010G23KT 10SM UP FEW014 BKN037 OVC070 01/M01 A2990 RMK AO2 PK WND 31028/0512 RAE47UPB47 SLP128 P0002 60002 T00111006 10094 20011 53019
K27K 
16nm N 
100635Z AUTO 28003KT 10SM SCT060 OVC070 02/00 A2989 RMK AO1
KIOB 
19nm E 
100635Z AUTO 30007KT 10SM SCT050 SCT065 OVC090 02/00 A2989 RMK AO2
KRGA 
20nm S 
100635Z AUTO 34015G24KT 10SM BKN014 BKN019 OVC031 03/01 A2991 RMK AO2
TAF
KLEX 
12nm W 
100520Z 1006/1106 33012G28KT 6SM -RA BR BKN028 OVC100 FM100700 30012G17KT P6SM BKN060 FM101100 32010KT P6SM SKC FM101400 32014G24KT P6SM SKC
NOTAMs
Click for the latest NOTAMs
NOTAMs are issued by the DoD/FAA and will open in a separate window not controlled by AirNav.

 

 
 

Would you like to see your business listed on this page?

 If your business provides an interesting product or service to pilots, flight crews, aircraft, or users of the Morning Star Heliport, you should consider listing it here.  To start the listing process, click on the button below
 
Add a business
 

Other Pages about Morning Star Heliport

Update a link
 
Copyright © AirNav, LLC. All rights reserved. Privacy Policy  Contact